createdAt,value
2022-10-08T00:00:58.610Z,13.88
2022-10-08T00:03:28.479Z,13.88
2022-10-08T00:05:56.278Z,13.88
2022-10-08T00:08:23.651Z,13.89
2022-10-08T00:10:58.669Z,13.89
2022-10-08T00:13:26.878Z,13.87
2022-10-08T00:15:53.677Z,13.88
2022-10-08T00:18:21.543Z,13.88
2022-10-08T00:20:48.338Z,13.85
2022-10-08T00:23:15.999Z,13.90
2022-10-08T00:25:44.119Z,13.91
2022-10-08T00:28:13.574Z,13.91
2022-10-08T00:30:41.467Z,13.88
2022-10-08T00:33:08.804Z,13.79
2022-10-08T00:35:39.147Z,13.86
2022-10-08T00:38:07.446Z,13.82
2022-10-08T00:40:44.301Z,13.79
2022-10-08T00:43:15.794Z,13.76
2022-10-08T00:45:47.861Z,13.75
2022-10-08T00:48:25.482Z,13.74
2022-10-08T00:50:52.238Z,13.70
2022-10-08T00:53:18.692Z,13.73
2022-10-08T00:55:45.052Z,13.74
2022-10-08T00:58:17.015Z,13.71
2022-10-08T01:00:44.317Z,13.76
2022-10-08T01:03:10.993Z,13.77
2022-10-08T01:06:20.566Z,13.78
2022-10-08T01:09:04.885Z,13.79
2022-10-08T01:11:54.532Z,13.79
2022-10-08T01:14:32.792Z,13.79
2022-10-08T01:17:20.225Z,13.78
2022-10-08T01:20:18.230Z,13.77
2022-10-08T01:23:14.215Z,13.77
2022-10-08T01:25:55.785Z,13.76
2022-10-08T01:28:25.066Z,13.76
2022-10-08T01:31:15.204Z,13.76
2022-10-08T01:33:48.049Z,13.77
2022-10-08T01:36:15.798Z,13.75
2022-10-08T01:38:45.777Z,13.75
2022-10-08T01:41:17.388Z,13.76
2022-10-08T01:43:49.224Z,13.76
2022-10-08T01:46:26.941Z,13.78
2022-10-08T01:48:57.946Z,13.78
2022-10-08T01:51:32.419Z,13.77
2022-10-08T01:54:03.232Z,13.78
2022-10-08T01:56:33.026Z,13.76
2022-10-08T01:59:07.018Z,13.73
2022-10-08T02:01:58.966Z,13.73
2022-10-08T02:04:33.547Z,13.72
2022-10-08T02:07:21.021Z,13.70
2022-10-08T02:09:53.557Z,13.69
2022-10-08T02:12:23.086Z,13.66
2022-10-08T02:14:52.987Z,13.66
2022-10-08T02:17:35.765Z,13.65
2022-10-08T02:20:23.083Z,13.64
2022-10-08T02:22:59.276Z,13.64
2022-10-08T02:25:36.944Z,13.62
2022-10-08T02:28:10.573Z,13.59
2022-10-08T02:30:44.287Z,13.55
2022-10-08T02:33:16.190Z,13.48
2022-10-08T02:35:49.487Z,13.39
2022-10-08T02:38:23.485Z,13.34
2022-10-08T02:40:54.612Z,13.33
2022-10-08T02:43:26.500Z,13.33
2022-10-08T02:46:01.364Z,13.36
2022-10-08T02:48:33.602Z,13.37
2022-10-08T02:51:06.116Z,13.27
2022-10-08T02:53:36.052Z,13.35
2022-10-08T02:56:08.246Z,13.33
2022-10-08T02:58:35.002Z,13.31
2022-10-08T03:01:12.277Z,13.26
2022-10-08T03:03:46.387Z,13.28
2022-10-08T03:06:14.682Z,13.23
2022-10-08T03:08:46.334Z,13.27
2022-10-08T03:11:13.708Z,13.27
2022-10-08T03:13:44.899Z,13.29
2022-10-08T03:16:14.251Z,13.29
2022-10-08T03:18:41.428Z,13.29
2022-10-08T03:21:10.608Z,13.30
2022-10-08T03:23:36.944Z,13.33
2022-10-08T03:26:03.330Z,13.37
2022-10-08T03:28:29.802Z,13.39
2022-10-08T03:30:56.332Z,13.36
2022-10-08T03:33:22.972Z,13.39
2022-10-08T03:35:49.354Z,13.40
2022-10-08T03:38:16.477Z,13.36
2022-10-08T03:40:43.969Z,13.33
2022-10-08T03:43:10.379Z,13.36
2022-10-08T03:45:36.780Z,13.35
2022-10-08T03:48:03.218Z,13.40
2022-10-08T03:50:29.576Z,13.42
2022-10-08T03:52:56.013Z,13.47
2022-10-08T03:55:22.347Z,13.53
2022-10-08T03:57:48.932Z,13.58
2022-10-08T04:00:15.433Z,13.63
2022-10-08T04:02:41.874Z,13.67
2022-10-08T04:05:08.585Z,13.69
2022-10-08T04:07:34.989Z,13.72
2022-10-08T04:10:01.391Z,13.74
2022-10-08T04:12:28.877Z,13.76
2022-10-08T04:14:55.240Z,13.76
2022-10-08T04:17:21.607Z,13.77
2022-10-08T04:19:47.978Z,13.79
2022-10-08T04:22:14.320Z,13.80
2022-10-08T04:24:40.676Z,13.82
2022-10-08T04:27:07.070Z,13.83
2022-10-08T04:29:33.435Z,13.86
2022-10-08T04:31:59.808Z,13.87
2022-10-08T04:34:26.166Z,13.87
2022-10-08T04:36:52.507Z,13.87
2022-10-08T04:39:18.880Z,13.87
2022-10-08T04:41:45.250Z,13.86
2022-10-08T04:44:11.602Z,13.86
2022-10-08T04:46:38.108Z,13.87
2022-10-08T04:49:04.623Z,13.85
2022-10-08T04:51:30.989Z,13.80
2022-10-08T04:53:58.225Z,13.76
2022-10-08T04:56:27.282Z,13.72
2022-10-08T04:58:57.097Z,13.70
2022-10-08T05:01:24.872Z,13.68
2022-10-08T05:03:54.470Z,13.67
2022-10-08T05:06:23.846Z,13.66
2022-10-08T05:08:50.700Z,13.67
2022-10-08T05:11:18.100Z,13.64
2022-10-08T05:13:49.893Z,13.65
2022-10-08T05:16:18.117Z,13.65
2022-10-08T05:18:45.436Z,13.67
2022-10-08T05:21:17.325Z,13.63
2022-10-08T05:23:44.343Z,13.66
2022-10-08T05:26:53.149Z,13.66
2022-10-08T05:29:12.240Z,13.65
2022-10-08T05:31:38.784Z,13.59
2022-10-08T05:34:05.707Z,13.61
2022-10-08T05:36:33.304Z,13.61
2022-10-08T05:39:01.552Z,13.62
2022-10-08T05:41:30.896Z,13.63
2022-10-08T05:43:58.630Z,13.62
2022-10-08T05:46:27.284Z,13.63
2022-10-08T05:48:55.430Z,13.62
2022-10-08T05:51:22.484Z,13.60
2022-10-08T05:53:51.327Z,13.56
2022-10-08T05:56:20.678Z,13.50
2022-10-08T05:58:48.241Z,13.42
2022-10-08T06:01:17.152Z,13.37
2022-10-08T06:03:43.842Z,13.33
2022-10-08T06:06:11.563Z,13.28
2022-10-08T06:08:38.326Z,13.29
2022-10-08T06:11:06.024Z,13.31
2022-10-08T06:13:32.641Z,13.33
2022-10-08T06:16:02.162Z,13.33
2022-10-08T06:18:31.816Z,13.40
2022-10-08T06:21:03.237Z,13.46
2022-10-08T06:23:29.590Z,13.52
2022-10-08T06:25:56.010Z,13.58
2022-10-08T06:28:22.491Z,13.62
2022-10-08T06:30:48.893Z,13.66
2022-10-08T06:33:16.786Z,13.67
2022-10-08T06:35:43.136Z,13.68
2022-10-08T06:38:09.560Z,13.72
2022-10-08T06:40:41.864Z,13.75
2022-10-08T06:43:17.262Z,13.78
2022-10-08T06:45:45.185Z,13.81
2022-10-08T06:48:13.131Z,13.86
2022-10-08T06:50:42.549Z,13.88
2022-10-08T06:53:11.399Z,13.91
2022-10-08T06:55:38.140Z,13.97
2022-10-08T06:58:05.504Z,14.03
2022-10-08T07:00:32.458Z,14.12
2022-10-08T07:02:58.897Z,14.18
2022-10-08T07:05:25.288Z,14.25
2022-10-08T07:07:51.658Z,14.31
2022-10-08T07:10:18.652Z,14.36
2022-10-08T07:12:45.455Z,14.41
2022-10-08T07:15:12.474Z,14.43
2022-10-08T07:17:38.821Z,14.46
2022-10-08T07:20:05.915Z,14.48
2022-10-08T07:22:32.265Z,14.55
2022-10-08T07:24:58.729Z,14.62
2022-10-08T07:27:25.077Z,14.69
2022-10-08T07:29:51.411Z,14.73
2022-10-08T07:32:17.846Z,14.79
2022-10-08T07:34:44.290Z,14.82
2022-10-08T07:37:10.708Z,14.84
2022-10-08T07:39:37.095Z,14.86
2022-10-08T07:42:03.611Z,14.87
2022-10-08T07:44:30.026Z,14.93
2022-10-08T07:46:56.510Z,15.02
2022-10-08T07:49:22.938Z,15.11
2022-10-08T07:51:49.383Z,15.12
2022-10-08T07:54:18.049Z,15.09
2022-10-08T07:56:45.264Z,15.11
2022-10-08T07:59:14.965Z,15.11
2022-10-08T08:01:42.559Z,15.10
2022-10-08T08:04:10.444Z,15.07
2022-10-08T08:06:43.114Z,15.04
2022-10-08T08:09:10.439Z,15.01
2022-10-08T08:11:37.258Z,15.06
2022-10-08T08:14:03.836Z,15.07
2022-10-08T08:16:30.334Z,15.05
2022-10-08T08:19:00.361Z,15.06
2022-10-08T08:21:29.594Z,15.06
2022-10-08T08:23:57.466Z,15.07
2022-10-08T08:26:30.047Z,15.05
2022-10-08T08:28:58.529Z,14.91
2022-10-08T08:31:36.451Z,14.96
2022-10-08T08:34:06.407Z,15.01
2022-10-08T08:36:36.891Z,15.13
2022-10-08T08:39:04.543Z,15.15
2022-10-08T08:41:49.026Z,15.24
2022-10-08T08:44:22.187Z,15.30
2022-10-08T08:47:11.409Z,15.33
2022-10-08T08:49:52.046Z,15.34
2022-10-08T08:52:22.971Z,15.35
2022-10-08T08:54:51.176Z,15.31
2022-10-08T08:57:38.039Z,15.23
2022-10-08T09:00:17.625Z,15.16
2022-10-08T09:02:57.823Z,15.12
2022-10-08T09:05:28.260Z,15.09
2022-10-08T09:08:05.918Z,15.15
2022-10-08T09:10:41.074Z,15.18
2022-10-08T09:13:17.678Z,15.19
2022-10-08T09:15:45.291Z,15.21
2022-10-08T09:18:14.377Z,15.20
2022-10-08T09:20:41.254Z,15.16
2022-10-08T09:23:18.959Z,15.17
2022-10-08T09:26:00.515Z,15.23
2022-10-08T09:28:46.483Z,15.24
2022-10-08T09:31:45.154Z,15.26
2022-10-08T09:34:13.170Z,15.28
2022-10-08T09:36:43.943Z,15.30
2022-10-08T09:39:18.398Z,15.34
2022-10-08T09:41:46.899Z,15.41
2022-10-08T09:44:19.819Z,15.53
2022-10-08T09:46:47.466Z,15.59
2022-10-08T09:49:35.209Z,15.64
2022-10-08T09:52:22.186Z,15.78
2022-10-08T09:54:53.312Z,15.89
2022-10-08T09:57:21.784Z,15.82
2022-10-08T09:59:55.972Z,15.72
2022-10-08T10:02:38.562Z,15.65
2022-10-08T10:05:23.372Z,15.56
2022-10-08T10:07:50.712Z,15.50
2022-10-08T10:10:25.785Z,15.45
2022-10-08T10:12:58.024Z,15.45
2022-10-08T10:15:33.427Z,15.42
2022-10-08T10:18:04.692Z,15.35
2022-10-08T10:20:41.345Z,15.25
2022-10-08T10:23:26.203Z,15.19
2022-10-08T10:25:58.766Z,15.15
2022-10-08T10:28:50.936Z,15.18
2022-10-08T10:31:27.251Z,15.20
2022-10-08T10:34:02.156Z,15.24
2022-10-08T10:36:35.476Z,15.27
2022-10-08T10:39:30.042Z,15.27
2022-10-08T10:42:26.479Z,15.26
2022-10-08T10:44:56.072Z,15.29
2022-10-08T10:47:28.317Z,15.38
2022-10-08T10:50:00.274Z,15.57
2022-10-08T10:52:39.512Z,15.84
2022-10-08T10:55:23.956Z,16.05
2022-10-08T10:58:07.319Z,16.33
2022-10-08T11:00:52.347Z,16.72
2022-10-08T11:03:24.814Z,16.94
2022-10-08T11:06:16.076Z,16.97
2022-10-08T11:08:55.286Z,16.91
2022-10-08T11:11:45.232Z,16.81
2022-10-08T11:14:23.777Z,16.73
2022-10-08T11:17:05.158Z,16.72
2022-10-08T11:20:08.066Z,16.65
2022-10-08T11:22:39.416Z,16.53
2022-10-08T11:25:26.144Z,16.47
2022-10-08T11:28:20.222Z,16.39
2022-10-08T11:31:06.859Z,16.28
2022-10-08T11:33:34.299Z,16.24
2022-10-08T11:36:35.294Z,16.17
2022-10-08T11:39:13.296Z,16.09
2022-10-08T11:41:59.640Z,16.10
2022-10-08T11:44:26.773Z,16.21
2022-10-08T11:46:53.278Z,16.52
2022-10-08T11:49:19.625Z,16.92
2022-10-08T11:51:51.928Z,17.16
2022-10-08T11:54:32.077Z,17.10
2022-10-08T11:57:21.360Z,16.94
2022-10-08T12:00:27.099Z,16.76
2022-10-08T12:02:55.399Z,16.63
2022-10-08T12:05:21.789Z,16.56
2022-10-08T12:07:57.485Z,16.59
2022-10-08T12:10:36.621Z,16.71
2022-10-08T12:13:24.978Z,16.93
2022-10-08T12:15:53.095Z,17.05
2022-10-08T12:18:26.524Z,17.28
2022-10-08T12:21:20.269Z,17.33
2022-10-08T12:23:46.872Z,17.37
2022-10-08T12:26:15.971Z,17.56
2022-10-08T12:28:42.416Z,17.78
2022-10-08T12:31:27.976Z,17.97
2022-10-08T12:34:03.457Z,18.04
2022-10-08T12:37:02.667Z,17.96
2022-10-08T12:39:36.671Z,17.87
2022-10-08T12:42:08.958Z,17.73
2022-10-08T12:44:35.403Z,17.53
2022-10-08T12:47:31.123Z,17.54
2022-10-08T12:50:12.868Z,17.64
2022-10-08T12:52:39.344Z,17.62
2022-10-08T12:55:06.784Z,17.52
2022-10-08T12:57:36.587Z,17.54
2022-10-08T13:00:08.563Z,17.74
2022-10-08T13:02:41.016Z,18.00
2022-10-08T13:05:30.705Z,18.22
2022-10-08T13:07:57.916Z,18.34
2022-10-08T13:10:28.184Z,18.45
2022-10-08T13:13:06.116Z,18.18
2022-10-08T13:15:34.513Z,17.93
2022-10-08T13:18:20.564Z,17.78
2022-10-08T13:21:03.827Z,17.61
2022-10-08T13:23:35.793Z,17.56
2022-10-08T13:26:02.789Z,17.62
2022-10-08T13:28:58.564Z,17.60
2022-10-08T13:31:23.430Z,17.71
2022-10-08T13:33:50.063Z,17.74
2022-10-08T13:36:23.273Z,17.68
2022-10-08T13:38:49.992Z,17.53
2022-10-08T13:41:25.088Z,17.42
2022-10-08T13:43:51.476Z,17.37
2022-10-08T13:46:17.888Z,17.27
2022-10-08T13:48:44.893Z,17.26
2022-10-08T13:51:11.653Z,17.35
2022-10-08T13:53:40.994Z,17.43
2022-10-08T13:56:07.583Z,17.47
2022-10-08T13:58:33.929Z,17.62
2022-10-08T14:01:00.315Z,17.97
2022-10-08T14:03:26.723Z,18.24
2022-10-08T14:05:53.188Z,18.19
2022-10-08T14:08:25.025Z,17.96
2022-10-08T14:10:57.555Z,17.65
2022-10-08T14:13:25.164Z,17.35
2022-10-08T14:15:51.792Z,17.47
2022-10-08T14:18:18.225Z,17.79
2022-10-08T14:20:44.706Z,18.09
2022-10-08T14:23:14.149Z,18.54
2022-10-08T14:25:40.543Z,18.90
2022-10-08T14:28:06.955Z,19.13
2022-10-08T14:30:33.402Z,19.29
2022-10-08T14:32:59.749Z,19.36
2022-10-08T14:35:26.228Z,19.42
2022-10-08T14:37:52.605Z,19.50
2022-10-08T14:40:21.579Z,19.54
2022-10-08T14:42:48.586Z,19.54
2022-10-08T14:45:15.322Z,19.84
2022-10-08T14:47:42.160Z,20.11
2022-10-08T14:50:08.986Z,20.22
2022-10-08T14:52:41.705Z,20.32
2022-10-08T14:55:11.971Z,20.96
2022-10-08T14:57:38.432Z,21.82
2022-10-08T15:00:05.943Z,23.73
2022-10-08T15:02:34.162Z,26.73
2022-10-08T15:05:01.635Z,29.39
2022-10-08T15:07:28.862Z,30.64
2022-10-08T15:09:55.231Z,31.35
2022-10-08T15:12:21.644Z,31.89
2022-10-08T15:14:48.067Z,32.24
2022-10-08T15:17:14.461Z,33.38
2022-10-08T15:19:41.028Z,34.45
2022-10-08T15:22:07.457Z,34.97
2022-10-08T15:24:34.267Z,35.65
2022-10-08T15:27:01.165Z,35.85
2022-10-08T15:29:27.582Z,36.50
2022-10-08T15:31:54.031Z,36.35
2022-10-08T15:34:20.913Z,36.52
2022-10-08T15:36:47.567Z,36.22
2022-10-08T15:39:16.728Z,35.89
2022-10-08T15:41:49.023Z,36.14
2022-10-08T15:44:18.084Z,36.25
2022-10-08T15:46:45.398Z,36.17
2022-10-08T15:49:12.147Z,36.04
2022-10-08T15:51:38.594Z,35.65
2022-10-08T15:54:05.217Z,33.93
2022-10-08T15:56:31.702Z,32.82
2022-10-08T15:58:59.496Z,32.79
2022-10-08T16:01:26.654Z,32.78
2022-10-08T16:03:54.620Z,32.65
2022-10-08T16:06:24.176Z,32.16
2022-10-08T16:08:51.333Z,31.13
2022-10-08T16:11:19.647Z,29.93
2022-10-08T16:13:49.081Z,28.84
2022-10-08T16:16:17.878Z,27.63
2022-10-08T16:18:45.648Z,26.21
2022-10-08T16:21:13.237Z,24.89
2022-10-08T16:23:39.740Z,23.77
2022-10-08T16:26:10.670Z,22.84
2022-10-08T16:28:38.582Z,22.01
2022-10-08T16:31:06.308Z,21.08
2022-10-08T16:33:32.781Z,20.20
2022-10-08T16:36:05.938Z,19.35
2022-10-08T16:38:33.456Z,18.66
2022-10-08T16:41:20.688Z,18.01
2022-10-08T16:43:51.871Z,17.46
2022-10-08T16:46:19.930Z,16.99
2022-10-08T16:49:06.181Z,16.55
2022-10-08T16:51:35.905Z,16.15
2022-10-08T16:54:04.127Z,15.86
2022-10-08T16:56:33.220Z,15.60
2022-10-08T16:59:07.917Z,15.34
2022-10-08T17:01:35.496Z,15.14
2022-10-08T17:04:05.839Z,14.95
2022-10-08T17:06:33.264Z,14.77
2022-10-08T17:08:59.685Z,14.62
2022-10-08T17:11:26.186Z,14.47
2022-10-08T17:13:55.735Z,14.32
2022-10-08T17:16:24.007Z,14.16
2022-10-08T17:18:52.782Z,13.99
2022-10-08T17:21:19.683Z,13.82
2022-10-08T17:23:46.466Z,13.65
2022-10-08T17:26:16.151Z,13.51
2022-10-08T17:28:45.196Z,13.37
2022-10-08T17:31:14.644Z,13.27
2022-10-08T17:33:41.796Z,13.14
2022-10-08T17:36:17.616Z,12.96
2022-10-08T17:38:45.620Z,12.81
2022-10-08T17:41:23.644Z,12.71
2022-10-08T17:43:51.115Z,12.61
2022-10-08T17:46:20.343Z,12.59
2022-10-08T17:48:47.036Z,12.62
2022-10-08T17:51:16.476Z,12.58
2022-10-08T17:53:43.773Z,12.59
2022-10-08T17:56:12.469Z,12.61
2022-10-08T17:58:39.619Z,12.59
2022-10-08T18:01:10.118Z,12.56
2022-10-08T18:03:37.733Z,12.53
2022-10-08T18:06:05.302Z,12.47
2022-10-08T18:08:31.995Z,12.51
2022-10-08T18:11:02.663Z,12.49
2022-10-08T18:13:29.084Z,12.45
2022-10-08T18:15:55.675Z,12.43
2022-10-08T18:18:22.112Z,12.36
2022-10-08T18:20:56.969Z,12.33
2022-10-08T18:23:24.482Z,12.20
2022-10-08T18:25:53.879Z,12.23
2022-10-08T18:28:22.046Z,12.19
2022-10-08T18:30:48.648Z,12.13
2022-10-08T18:33:15.597Z,11.99
2022-10-08T18:35:41.988Z,11.98
2022-10-08T18:38:08.345Z,11.94
2022-10-08T18:40:34.816Z,11.90
2022-10-08T18:43:01.199Z,11.79
2022-10-08T18:45:27.714Z,11.70
2022-10-08T18:47:54.106Z,11.60
2022-10-08T18:50:20.482Z,11.46
2022-10-08T18:52:47.076Z,11.40
2022-10-08T18:55:14.123Z,11.37
2022-10-08T18:57:40.820Z,11.35
2022-10-08T19:00:07.906Z,11.38
2022-10-08T19:02:34.453Z,11.39
2022-10-08T19:05:00.998Z,11.39
2022-10-08T19:07:27.419Z,11.39
2022-10-08T19:09:53.843Z,11.36
2022-10-08T19:12:20.207Z,11.35
2022-10-08T19:14:47.228Z,11.36
2022-10-08T19:17:13.606Z,11.38
2022-10-08T19:19:39.977Z,11.40
2022-10-08T19:22:06.381Z,11.42
2022-10-08T19:24:32.755Z,11.44
2022-10-08T19:26:59.183Z,11.43
2022-10-08T19:29:29.061Z,11.44
2022-10-08T19:31:56.313Z,11.42
2022-10-08T19:34:24.908Z,11.42
2022-10-08T19:36:52.130Z,11.44
2022-10-08T19:39:22.416Z,11.45
2022-10-08T19:41:49.620Z,11.46
2022-10-08T19:44:17.141Z,11.49
2022-10-08T19:46:44.161Z,11.53
2022-10-08T19:49:11.024Z,11.53
2022-10-08T19:51:38.341Z,11.50
2022-10-08T19:54:05.750Z,11.44
2022-10-08T19:56:32.338Z,11.39
2022-10-08T19:58:59.126Z,11.33
2022-10-08T20:01:35.132Z,11.34
2022-10-08T20:04:03.817Z,11.27
2022-10-08T20:06:32.311Z,11.24
2022-10-08T20:09:01.577Z,11.19
2022-10-08T20:11:29.750Z,11.10
2022-10-08T20:13:56.965Z,11.04
2022-10-08T20:16:26.172Z,10.96
2022-10-08T20:18:55.757Z,10.96
2022-10-08T20:21:22.602Z,10.94
2022-10-08T20:23:49.426Z,10.93
2022-10-08T20:26:22.999Z,10.90
2022-10-08T20:28:53.033Z,10.85
2022-10-08T20:31:22.812Z,10.81
2022-10-08T20:33:58.829Z,10.78
2022-10-08T20:36:25.280Z,10.72
2022-10-08T20:38:52.078Z,10.72
2022-10-08T20:41:18.849Z,10.70
2022-10-08T20:43:45.233Z,10.66
2022-10-08T20:46:13.885Z,10.62
2022-10-08T20:48:42.202Z,10.62
2022-10-08T20:51:20.039Z,10.56
2022-10-08T20:53:52.673Z,10.54
2022-10-08T20:56:20.081Z,10.46
2022-10-08T20:58:46.663Z,10.40
2022-10-08T21:01:24.382Z,10.40
2022-10-08T21:03:51.553Z,10.43
2022-10-08T21:06:20.489Z,10.49
2022-10-08T21:08:49.064Z,10.55
2022-10-08T21:11:18.425Z,10.62
2022-10-08T21:13:45.499Z,10.71
2022-10-08T21:16:13.753Z,10.72
2022-10-08T21:18:41.084Z,10.63
2022-10-08T21:21:12.190Z,10.52
2022-10-08T21:23:39.277Z,10.39
2022-10-08T21:26:06.739Z,10.37
2022-10-08T21:28:33.473Z,10.31
2022-10-08T21:31:03.957Z,10.24
2022-10-08T21:33:33.838Z,10.13
2022-10-08T21:36:00.244Z,10.02
2022-10-08T21:38:26.608Z,9.91
2022-10-08T21:40:57.575Z,9.89
2022-10-08T21:43:24.498Z,9.89
2022-10-08T21:45:59.484Z,9.93
2022-10-08T21:48:28.146Z,9.98
2022-10-08T21:51:07.048Z,9.98
2022-10-08T21:53:35.833Z,9.95
2022-10-08T21:56:05.430Z,9.92
2022-10-08T21:58:36.341Z,9.88
2022-10-08T22:01:03.397Z,9.86
2022-10-08T22:03:29.926Z,9.79
2022-10-08T22:05:58.310Z,9.73
2022-10-08T22:08:26.478Z,9.68
2022-10-08T22:10:53.416Z,9.66
2022-10-08T22:13:20.062Z,9.66
2022-10-08T22:15:54.393Z,9.65
2022-10-08T22:18:22.326Z,9.61
2022-10-08T22:20:48.724Z,9.60
2022-10-08T22:23:15.715Z,9.57
2022-10-08T22:25:42.494Z,9.56
2022-10-08T22:28:09.521Z,9.55
2022-10-08T22:30:36.840Z,9.52
2022-10-08T22:33:03.925Z,9.50
2022-10-08T22:35:32.589Z,9.53
2022-10-08T22:37:59.874Z,9.54
2022-10-08T22:40:26.637Z,9.57
2022-10-08T22:42:53.057Z,9.56
2022-10-08T22:45:19.440Z,9.48
2022-10-08T22:47:46.235Z,9.42
2022-10-08T22:50:12.679Z,9.38
2022-10-08T22:52:39.221Z,9.34
2022-10-08T22:55:05.705Z,9.33
2022-10-08T22:57:32.107Z,9.31
2022-10-08T22:59:58.449Z,9.28
2022-10-08T23:02:24.857Z,9.33
2022-10-08T23:04:51.265Z,9.29
2022-10-08T23:07:17.650Z,9.24
2022-10-08T23:09:44.002Z,9.18
2022-10-08T23:12:10.473Z,9.17
2022-10-08T23:14:36.822Z,9.17
2022-10-08T23:17:03.410Z,9.20
2022-10-08T23:19:29.815Z,9.20
2022-10-08T23:21:56.171Z,9.23
2022-10-08T23:24:22.616Z,9.23
2022-10-08T23:26:49.762Z,9.26
2022-10-08T23:29:16.130Z,9.29
2022-10-08T23:31:42.542Z,9.33
2022-10-08T23:34:09.088Z,9.33
2022-10-08T23:36:41.240Z,9.37
2022-10-08T23:39:11.856Z,9.39
2022-10-08T23:41:38.266Z,9.41
2022-10-08T23:44:05.441Z,9.40
2022-10-08T23:46:32.278Z,9.49
2022-10-08T23:48:59.505Z,9.53
2022-10-08T23:51:31.912Z,9.58
2022-10-08T23:53:58.849Z,9.63
2022-10-08T23:56:25.243Z,9.69
2022-10-08T23:58:51.672Z,9.73
